createdAt,value
2019-03-15T00:01:39.968Z,65.70
2019-03-15T00:05:45.276Z,64.99
2019-03-15T00:09:50.482Z,65.42
2019-03-15T00:13:55.679Z,65.14
2019-03-15T00:18:01.877Z,65.43
2019-03-15T00:22:07.075Z,65.76
2019-03-15T00:26:12.205Z,66.02
2019-03-15T00:30:17.315Z,65.68
2019-03-15T00:34:22.435Z,65.57
2019-03-15T00:38:27.577Z,65.52
2019-03-15T00:42:32.680Z,65.76
2019-03-15T00:46:37.853Z,65.96
2019-03-15T00:50:42.966Z,66.27
2019-03-15T00:54:48.150Z,66.52
2019-03-15T00:58:53.242Z,66.31
2019-03-15T01:02:58.346Z,66.63
2019-03-15T01:07:03.464Z,66.51
2019-03-15T01:11:08.651Z,66.52
2019-03-15T01:15:14.062Z,66.66
2019-03-15T01:19:19.690Z,66.94
2019-03-15T01:23:24.888Z,66.91
2019-03-15T01:27:30.982Z,66.77
2019-03-15T01:31:36.093Z,66.87
2019-03-15T01:35:41.326Z,67.03
2019-03-15T01:39:46.793Z,67.03
2019-03-15T01:43:51.898Z,67.27
2019-03-15T01:47:59.646Z,67.13
2019-03-15T01:52:04.773Z,67.30
2019-03-15T01:56:09.967Z,67.61
2019-03-15T02:00:15.059Z,67.63
2019-03-15T02:04:20.159Z,66.84
2019-03-15T02:08:25.302Z,66.40
2019-03-15T02:12:30.472Z,66.43
2019-03-15T02:16:35.794Z,66.13
2019-03-15T02:20:40.896Z,65.97
2019-03-15T02:24:45.995Z,66.04
2019-03-15T02:28:51.163Z,66.09
2019-03-15T02:32:56.307Z,66.53
2019-03-15T02:37:01.481Z,66.63
2019-03-15T02:41:06.596Z,66.29
2019-03-15T02:45:11.758Z,65.77
2019-03-15T02:49:17.512Z,65.78
2019-03-15T02:53:22.645Z,65.58
2019-03-15T02:57:27.844Z,66.00
2019-03-15T03:01:34.258Z,65.88
2019-03-15T03:05:40.513Z,66.05
2019-03-15T03:09:45.704Z,66.02
2019-03-15T03:13:50.829Z,66.02
2019-03-15T03:17:55.959Z,65.68
2019-03-15T03:22:01.209Z,65.85
2019-03-15T03:26:07.257Z,66.06
2019-03-15T03:30:17.166Z,66.21
2019-03-15T03:34:22.259Z,65.92
2019-03-15T03:38:27.441Z,65.81
2019-03-15T03:42:32.659Z,66.27
2019-03-15T03:46:37.963Z,66.42
2019-03-15T03:50:43.517Z,65.84
2019-03-15T03:54:49.138Z,65.67
2019-03-15T03:58:54.266Z,65.86
2019-03-15T04:02:59.473Z,65.46
2019-03-15T04:07:04.796Z,65.56
2019-03-15T04:11:09.873Z,65.86
2019-03-15T04:15:14.968Z,66.25
2019-03-15T04:19:20.081Z,66.44
2019-03-15T04:23:25.242Z,67.10
2019-03-15T04:27:30.642Z,67.98
2019-03-15T04:31:35.705Z,69.21
2019-03-15T04:35:40.947Z,70.21
2019-03-15T04:39:46.056Z,70.67
2019-03-15T04:43:51.205Z,70.62
2019-03-15T04:47:56.486Z,71.24
2019-03-15T04:52:01.647Z,71.59
2019-03-15T04:56:06.808Z,71.89
2019-03-15T05:00:13.028Z,71.73
2019-03-15T05:04:18.224Z,71.84
2019-03-15T05:08:23.625Z,71.71
2019-03-15T05:12:28.949Z,72.77
2019-03-15T05:16:34.026Z,72.77
2019-03-15T05:20:39.250Z,73.54
2019-03-15T05:24:45.432Z,73.39
2019-03-15T05:28:50.575Z,73.87
2019-03-15T05:32:55.821Z,74.16
2019-03-15T05:37:00.945Z,74.43
2019-03-15T05:41:06.083Z,74.83
2019-03-15T05:45:11.183Z,75.58
2019-03-15T05:49:16.427Z,75.71
2019-03-15T05:53:21.562Z,76.61
2019-03-15T05:57:26.740Z,77.40
2019-03-15T06:01:31.950Z,78.19
2019-03-15T06:05:37.164Z,78.67
2019-03-15T06:09:42.617Z,79.66
2019-03-15T06:13:48.785Z,80.07
2019-03-15T06:17:55.770Z,80.41
2019-03-15T06:22:00.946Z,80.71
2019-03-15T06:26:06.076Z,80.92
2019-03-15T06:30:11.447Z,81.14
2019-03-15T06:34:16.546Z,81.34
2019-03-15T06:38:22.257Z,81.58
2019-03-15T06:42:27.455Z,81.80
2019-03-15T06:46:32.658Z,81.91
2019-03-15T06:50:37.818Z,82.07
2019-03-15T06:54:43.977Z,82.21
2019-03-15T06:58:49.084Z,82.48
2019-03-15T07:02:54.338Z,82.46
2019-03-15T07:06:59.473Z,82.67
2019-03-15T07:11:05.522Z,82.84
2019-03-15T07:15:10.801Z,82.98
2019-03-15T07:19:25.447Z,83.01
2019-03-15T07:23:22.891Z,83.16
2019-03-15T07:27:28.090Z,83.22
2019-03-15T07:31:33.312Z,83.22
2019-03-15T07:35:38.467Z,83.31
2019-03-15T07:39:44.863Z,83.33
2019-03-15T07:43:49.976Z,83.48
2019-03-15T07:47:56.974Z,83.48
2019-03-15T07:52:04.008Z,83.59
2019-03-15T07:56:08.897Z,83.54
2019-03-15T08:00:14.100Z,83.37
2019-03-15T08:04:21.797Z,83.50
2019-03-15T08:08:27.033Z,83.48
2019-03-15T08:12:32.190Z,83.43
2019-03-15T08:16:37.407Z,83.34
2019-03-15T08:20:42.635Z,83.35
2019-03-15T08:24:51.682Z,83.35
2019-03-15T08:28:56.681Z,83.27
2019-03-15T08:33:10.476Z,83.28
2019-03-15T08:37:18.584Z,83.30
2019-03-15T08:41:23.780Z,83.40
2019-03-15T08:45:29.392Z,83.39
2019-03-15T08:49:34.584Z,83.37
2019-03-15T08:53:39.746Z,83.30
2019-03-15T08:57:44.847Z,83.26
2019-03-15T09:01:50.014Z,83.25
2019-03-15T09:05:55.169Z,83.28
2019-03-15T09:10:03.255Z,83.29
2019-03-15T09:14:07.223Z,83.32
2019-03-15T09:18:12.486Z,83.35
2019-03-15T09:22:17.920Z,83.34
2019-03-15T09:26:23.100Z,83.43
2019-03-15T09:30:28.569Z,83.30
2019-03-15T09:34:33.763Z,83.33
2019-03-15T09:38:39.938Z,83.01
2019-03-15T09:42:45.153Z,83.05
2019-03-15T09:46:50.335Z,82.98
2019-03-15T09:50:56.320Z,83.22
2019-03-15T09:55:01.572Z,83.07
2019-03-15T09:59:09.117Z,83.30
2019-03-15T10:03:22.223Z,83.09
2019-03-15T10:07:21.211Z,82.96
2019-03-15T10:11:26.485Z,82.75
2019-03-15T10:15:31.660Z,82.78
2019-03-15T10:19:36.857Z,82.88
2019-03-15T10:23:42.003Z,83.07
2019-03-15T10:27:47.132Z,83.33
2019-03-15T10:31:53.320Z,83.23
2019-03-15T10:35:58.428Z,82.55
2019-03-15T10:40:05.792Z,82.55
2019-03-15T10:44:10.902Z,82.12
2019-03-15T10:48:24.990Z,81.91
2019-03-15T10:52:26.006Z,81.66
2019-03-15T10:56:31.394Z,81.20
2019-03-15T11:00:36.656Z,81.05
2019-03-15T11:04:43.842Z,80.72
2019-03-15T11:08:49.082Z,79.88
2019-03-15T11:12:54.182Z,79.57
2019-03-15T11:16:59.386Z,79.29
2019-03-15T11:21:04.488Z,78.95
2019-03-15T11:25:09.665Z,78.46
2019-03-15T11:29:15.078Z,78.34
2019-03-15T11:33:20.284Z,78.90
2019-03-15T11:37:25.842Z,79.83
2019-03-15T11:41:30.994Z,80.38
2019-03-15T11:45:36.301Z,80.35
2019-03-15T11:49:41.629Z,80.84
2019-03-15T11:53:46.761Z,80.74
2019-03-15T11:57:53.765Z,80.28
2019-03-15T12:02:03.902Z,79.70
2019-03-15T12:06:05.738Z,79.61
2019-03-15T12:10:10.980Z,79.08
2019-03-15T12:14:17.103Z,78.39
2019-03-15T12:18:23.276Z,77.86
2019-03-15T12:22:29.389Z,78.13
2019-03-15T12:26:40.197Z,77.83
2019-03-15T12:30:42.998Z,77.32
2019-03-15T12:34:48.442Z,77.53
2019-03-15T12:38:53.566Z,77.32
2019-03-15T12:42:58.689Z,76.90
2019-03-15T12:47:06.236Z,76.54
2019-03-15T12:51:12.535Z,76.58
2019-03-15T12:55:17.951Z,75.79
2019-03-15T12:59:24.193Z,75.53
2019-03-15T13:03:29.330Z,74.84
2019-03-15T13:07:34.585Z,74.80
2019-03-15T13:11:39.782Z,75.50
2019-03-15T13:15:44.974Z,75.51
2019-03-15T13:19:55.103Z,75.73
2019-03-15T13:23:57.000Z,75.66
2019-03-15T13:28:03.310Z,75.46
2019-03-15T13:32:08.531Z,75.41
2019-03-15T13:36:13.674Z,75.11
2019-03-15T13:40:18.853Z,74.86
2019-03-15T13:44:26.250Z,74.16
2019-03-15T13:48:30.906Z,74.31
2019-03-15T13:52:39.113Z,73.89
2019-03-15T13:56:44.515Z,73.70
2019-03-15T14:00:49.760Z,73.83
2019-03-15T14:04:54.887Z,73.13
2019-03-15T14:09:00.019Z,72.99
2019-03-15T14:13:05.204Z,71.99
2019-03-15T14:17:10.496Z,72.24
2019-03-15T14:21:15.696Z,72.09
2019-03-15T14:25:20.816Z,72.00
2019-03-15T14:29:26.045Z,72.13
2019-03-15T14:33:31.171Z,72.27
2019-03-15T14:37:36.428Z,72.91
2019-03-15T14:41:41.581Z,74.42
2019-03-15T14:45:46.897Z,74.96
2019-03-15T14:49:52.079Z,74.86
2019-03-15T14:53:57.231Z,74.42
2019-03-15T14:58:02.467Z,74.02
2019-03-15T15:02:07.652Z,73.82
2019-03-15T15:06:12.764Z,74.08
2019-03-15T15:10:18.042Z,74.58
2019-03-15T15:14:23.252Z,74.30
2019-03-15T15:18:28.365Z,75.11
2019-03-15T15:22:34.541Z,76.19
2019-03-15T15:26:39.687Z,77.51
2019-03-15T15:30:47.186Z,78.09
2019-03-15T15:34:56.112Z,79.22
2019-03-15T15:39:01.369Z,79.16
2019-03-15T15:43:07.992Z,79.08
2019-03-15T15:47:13.248Z,77.51
2019-03-15T15:51:19.453Z,77.23
2019-03-15T15:55:24.651Z,77.42
2019-03-15T15:59:29.912Z,78.86
2019-03-15T16:03:35.036Z,79.62
2019-03-15T16:07:40.391Z,80.22
2019-03-15T16:11:45.813Z,80.45
2019-03-15T16:15:50.971Z,80.43
2019-03-15T16:19:56.131Z,81.25
2019-03-15T16:24:01.265Z,81.86
2019-03-15T16:28:06.409Z,82.08
2019-03-15T16:32:11.582Z,81.69
2019-03-15T16:36:17.013Z,81.45
2019-03-15T16:40:22.110Z,81.39
2019-03-15T16:44:27.343Z,81.50
2019-03-15T16:48:32.568Z,81.93
2019-03-15T16:52:37.853Z,82.00
2019-03-15T16:56:43.086Z,82.01
2019-03-15T17:00:48.247Z,81.86
2019-03-15T17:04:53.489Z,82.37
2019-03-15T17:08:58.635Z,82.81
2019-03-15T17:13:04.114Z,82.96
2019-03-15T17:17:09.259Z,83.00
2019-03-15T17:21:14.451Z,83.07
2019-03-15T17:25:19.664Z,83.11
2019-03-15T17:29:24.844Z,83.24
2019-03-15T17:33:30.013Z,83.45
2019-03-15T17:37:35.136Z,83.46
2019-03-15T17:41:40.607Z,83.65
2019-03-15T17:45:47.445Z,83.48
2019-03-15T17:49:52.587Z,83.50
2019-03-15T17:53:57.772Z,84.17
2019-03-15T17:58:02.917Z,84.31
2019-03-15T18:02:08.179Z,84.86
2019-03-15T18:06:14.295Z,85.22
2019-03-15T18:10:19.424Z,85.44
2019-03-15T18:14:24.608Z,85.69
2019-03-15T18:18:29.862Z,85.23
2019-03-15T18:22:35.061Z,85.12
2019-03-15T18:26:40.215Z,85.43
2019-03-15T18:30:45.337Z,85.76
2019-03-15T18:34:50.531Z,85.87
2019-03-15T18:38:56.080Z,85.87
2019-03-15T18:43:01.240Z,85.63
2019-03-15T18:47:06.383Z,85.31
2019-03-15T18:51:11.485Z,84.57
2019-03-15T18:55:16.644Z,84.46
2019-03-15T18:59:21.783Z,84.29
2019-03-15T19:03:27.107Z,84.29
2019-03-15T19:07:32.511Z,83.67
2019-03-15T19:11:37.631Z,83.48
2019-03-15T19:15:45.833Z,83.20
2019-03-15T19:19:51.173Z,83.19
2019-03-15T19:23:56.339Z,83.40
2019-03-15T19:28:01.570Z,83.66
2019-03-15T19:32:06.697Z,83.45
2019-03-15T19:36:11.910Z,83.27
2019-03-15T19:40:17.237Z,83.24
2019-03-15T19:44:23.384Z,83.19
2019-03-15T19:48:28.567Z,83.64
2019-03-15T19:52:34.073Z,83.42
2019-03-15T19:56:39.211Z,83.82
2019-03-15T20:00:44.344Z,84.07
2019-03-15T20:04:49.547Z,83.97
2019-03-15T20:08:54.946Z,83.97
2019-03-15T20:13:02.631Z,83.54
2019-03-15T20:17:08.095Z,83.53
2019-03-15T20:21:14.045Z,83.33
2019-03-15T20:25:19.478Z,83.46
2019-03-15T20:29:24.998Z,83.57
2019-03-15T20:33:30.896Z,83.57
2019-03-15T20:37:36.270Z,83.44
2019-03-15T20:41:41.493Z,83.42
2019-03-15T20:45:46.634Z,83.18
2019-03-15T20:49:51.779Z,83.01
2019-03-15T20:53:56.894Z,83.22
2019-03-15T20:58:02.307Z,83.30
2019-03-15T21:02:07.779Z,83.22
2019-03-15T21:06:13.055Z,83.32
2019-03-15T21:10:18.295Z,82.79
2019-03-15T21:14:23.561Z,82.97
2019-03-15T21:18:28.913Z,83.06
2019-03-15T21:22:35.407Z,83.19
2019-03-15T21:26:40.506Z,82.67
2019-03-15T21:30:48.600Z,82.02
2019-03-15T21:34:52.535Z,81.93
2019-03-15T21:38:57.688Z,82.19
2019-03-15T21:43:02.883Z,82.38
2019-03-15T21:47:08.002Z,82.38
2019-03-15T21:51:14.644Z,82.19
2019-03-15T21:55:19.775Z,82.25
2019-03-15T21:59:24.964Z,82.42
2019-03-15T22:03:30.087Z,82.26
2019-03-15T22:07:35.599Z,82.06
2019-03-15T22:11:40.832Z,82.17
2019-03-15T22:15:45.955Z,81.95
2019-03-15T22:19:51.106Z,81.96
2019-03-15T22:23:56.230Z,81.34
2019-03-15T22:28:01.344Z,80.39
2019-03-15T22:32:06.547Z,79.86
2019-03-15T22:36:11.658Z,79.78
2019-03-15T22:40:17.766Z,80.27
2019-03-15T22:44:22.922Z,79.00
2019-03-15T22:48:28.099Z,78.35
2019-03-15T22:52:34.247Z,78.31
2019-03-15T22:56:39.715Z,78.62
2019-03-15T23:00:45.326Z,79.13
2019-03-15T23:04:52.149Z,79.46
2019-03-15T23:08:57.279Z,79.98
2019-03-15T23:13:02.441Z,80.71
2019-03-15T23:17:07.562Z,81.20
2019-03-15T23:21:12.710Z,81.00
2019-03-15T23:25:17.809Z,81.02
2019-03-15T23:29:22.967Z,81.30
2019-03-15T23:33:28.084Z,80.37
2019-03-15T23:37:33.202Z,80.09
2019-03-15T23:41:38.373Z,77.63
2019-03-15T23:45:45.616Z,77.90
2019-03-15T23:49:50.817Z,77.60
2019-03-15T23:53:56.898Z,78.38
2019-03-15T23:58:02.092Z,78.14
